createdAt,value
2018-10-18T00:00:35.270Z,0
2018-10-18T00:01:40.813Z,0
2018-10-18T00:02:45.966Z,0
2018-10-18T00:03:51.838Z,0
2018-10-18T00:04:56.706Z,0
2018-10-18T00:06:01.567Z,0
2018-10-18T00:07:06.966Z,0
2018-10-18T00:08:11.846Z,0
2018-10-18T00:09:17.241Z,0
2018-10-18T00:10:22.435Z,0
2018-10-18T00:11:27.026Z,0
2018-10-18T00:12:32.287Z,0
2018-10-18T00:13:37.204Z,0
2018-10-18T00:14:42.724Z,0
2018-10-18T00:15:48.239Z,0
2018-10-18T00:16:53.201Z,0
2018-10-18T00:17:58.279Z,0
2018-10-18T00:19:03.621Z,0
2018-10-18T00:20:08.995Z,0
2018-10-18T00:21:14.878Z,0
2018-10-18T00:22:20.109Z,0
2018-10-18T00:23:25.254Z,0
2018-10-18T00:24:30.540Z,0
2018-10-18T00:25:35.740Z,0
2018-10-18T00:26:41.173Z,0
2018-10-18T00:27:46.664Z,0
2018-10-18T00:28:51.556Z,0
2018-10-18T00:29:56.181Z,0
2018-10-18T00:31:00.473Z,0
2018-10-18T00:32:05.865Z,0
2018-10-18T00:33:11.766Z,0
2018-10-18T00:34:17.219Z,0
2018-10-18T00:35:22.450Z,0
2018-10-18T00:36:28.213Z,0
2018-10-18T00:37:33.417Z,0
2018-10-18T00:38:38.300Z,0
2018-10-18T00:39:43.512Z,0
2018-10-18T00:40:48.412Z,0
2018-10-18T00:41:53.680Z,0
2018-10-18T00:42:58.809Z,0
2018-10-18T00:44:04.238Z,0
2018-10-18T00:45:10.035Z,0
2018-10-18T00:46:15.316Z,0
2018-10-18T00:47:20.788Z,0
2018-10-18T00:48:40.842Z,0
2018-10-18T00:49:46.283Z,0
2018-10-18T00:50:51.484Z,0
2018-10-18T00:51:56.752Z,0
2018-10-18T00:53:02.218Z,0
2018-10-18T00:54:06.690Z,0
2018-10-18T00:55:12.897Z,0
2018-10-18T00:56:18.387Z,0
2018-10-18T00:57:23.579Z,0
2018-10-18T00:58:43.731Z,0
2018-10-18T00:59:48.903Z,0
2018-10-18T01:00:54.409Z,0
2018-10-18T01:01:59.714Z,0
2018-10-18T01:03:04.602Z,0
2018-10-18T01:04:10.162Z,0
2018-10-18T01:05:15.062Z,0
2018-10-18T01:06:20.053Z,0
2018-10-18T01:07:25.632Z,0
2018-10-18T01:08:30.932Z,0
2018-10-18T01:09:36.523Z,0
2018-10-18T01:10:42.006Z,0
2018-10-18T01:11:47.187Z,0
2018-10-18T01:12:52.717Z,0
2018-10-18T01:13:58.443Z,0
2018-10-18T01:15:04.166Z,0
2018-10-18T01:16:09.752Z,0
2018-10-18T01:17:15.207Z,0
2018-10-18T01:18:20.381Z,0
2018-10-18T01:19:26.180Z,0
2018-10-18T01:20:31.696Z,0
2018-10-18T01:21:37.532Z,0
2018-10-18T01:22:42.394Z,0
2018-10-18T01:23:47.904Z,0
2018-10-18T01:24:53.344Z,0
2018-10-18T01:25:58.295Z,0
2018-10-18T01:27:03.349Z,0
2018-10-18T01:28:09.044Z,0
2018-10-18T01:29:13.456Z,0
2018-10-18T01:30:18.672Z,0
2018-10-18T01:31:24.140Z,0
2018-10-18T01:32:29.587Z,0
2018-10-18T01:33:35.091Z,0
2018-10-18T01:34:40.246Z,0
2018-10-18T01:35:45.712Z,0
2018-10-18T01:36:51.637Z,0
2018-10-18T01:37:56.314Z,0
2018-10-18T01:39:01.619Z,0
2018-10-18T01:40:07.196Z,0
2018-10-18T01:41:12.355Z,0
2018-10-18T01:42:17.930Z,0
2018-10-18T01:43:23.653Z,0
2018-10-18T01:44:28.817Z,0
2018-10-18T01:45:34.661Z,0
2018-10-18T01:46:40.046Z,0
2018-10-18T01:47:45.487Z,0
2018-10-18T01:48:51.273Z,0
2018-10-18T01:49:56.627Z,0
2018-10-18T01:51:01.710Z,0
2018-10-18T01:52:07.283Z,0
2018-10-18T01:53:12.733Z,0
2018-10-18T01:54:18.174Z,0
2018-10-18T01:55:23.951Z,0
2018-10-18T01:56:29.142Z,0
2018-10-18T01:57:35.050Z,0
2018-10-18T01:58:40.483Z,0
2018-10-18T01:59:46.010Z,0
2018-10-18T02:00:51.484Z,0
2018-10-18T02:01:56.455Z,0
2018-10-18T02:03:02.149Z,0
2018-10-18T02:04:07.087Z,0
2018-10-18T02:05:12.522Z,0
2018-10-18T02:06:18.341Z,0
2018-10-18T02:07:23.710Z,0
2018-10-18T02:08:29.215Z,0
2018-10-18T02:09:34.990Z,0
2018-10-18T02:10:40.430Z,0
2018-10-18T02:11:45.377Z,0
2018-10-18T02:12:51.223Z,0
2018-10-18T02:13:55.850Z,0
2018-10-18T02:15:01.073Z,0
2018-10-18T02:16:06.477Z,0
2018-10-18T02:17:11.436Z,0
2018-10-18T02:18:17.035Z,0
2018-10-18T02:19:22.826Z,0
2018-10-18T02:20:27.987Z,0
2018-10-18T02:21:33.885Z,0
2018-10-18T02:22:39.321Z,0
2018-10-18T02:23:44.761Z,0
2018-10-18T02:24:50.001Z,0
2018-10-18T02:25:55.480Z,0
2018-10-18T02:27:00.948Z,0
2018-10-18T02:28:06.277Z,0
2018-10-18T02:29:11.719Z,0
2018-10-18T02:30:17.563Z,0
2018-10-18T02:31:23.106Z,0
2018-10-18T02:32:27.684Z,0
2018-10-18T02:33:33.284Z,0
2018-10-18T02:34:38.797Z,0
2018-10-18T02:35:43.966Z,0
2018-10-18T02:36:49.740Z,0
2018-10-18T02:37:54.886Z,0
2018-10-18T02:38:59.774Z,0
2018-10-18T02:40:05.224Z,0
2018-10-18T02:41:10.173Z,0
2018-10-18T02:42:16.047Z,0
2018-10-18T02:43:22.013Z,0
2018-10-18T02:44:27.452Z,0
2018-10-18T02:45:32.562Z,0
2018-10-18T02:46:37.726Z,0
2018-10-18T02:47:43.154Z,0
2018-10-18T02:48:48.296Z,0
2018-10-18T02:49:53.251Z,0
2018-10-18T02:50:58.457Z,0
2018-10-18T02:52:04.399Z,0
2018-10-18T02:53:09.665Z,0
2018-10-18T02:54:15.767Z,0
2018-10-18T02:55:21.093Z,0
2018-10-18T02:56:26.607Z,0
2018-10-18T02:57:32.179Z,0
2018-10-18T02:58:37.328Z,0
2018-10-18T02:59:42.331Z,0
2018-10-18T03:00:47.866Z,0
2018-10-18T03:01:53.091Z,0
2018-10-18T03:02:58.573Z,0
2018-10-18T03:04:03.704Z,0
2018-10-18T03:05:08.568Z,0
2018-10-18T03:06:14.458Z,0
2018-10-18T03:07:20.320Z,0
2018-10-18T03:08:25.263Z,0
2018-10-18T03:09:30.900Z,0
2018-10-18T03:10:36.455Z,0
2018-10-18T03:11:41.618Z,0
2018-10-18T03:12:46.898Z,0
2018-10-18T03:13:52.053Z,0
2018-10-18T03:14:57.239Z,0
2018-10-18T03:16:02.854Z,0
2018-10-18T03:17:07.937Z,0
2018-10-18T03:18:13.321Z,0
2018-10-18T03:19:19.165Z,0
2018-10-18T03:20:24.592Z,0
2018-10-18T03:21:29.464Z,0
2018-10-18T03:22:34.703Z,0
2018-10-18T03:23:40.148Z,0
2018-10-18T03:24:45.418Z,0
2018-10-18T03:25:50.567Z,0
2018-10-18T03:26:55.725Z,0
2018-10-18T03:28:01.498Z,0
2018-10-18T03:29:06.129Z,0
2018-10-18T03:30:12.287Z,0
2018-10-18T03:31:18.741Z,0
2018-10-18T03:32:23.972Z,0
2018-10-18T03:33:30.016Z,0
2018-10-18T03:34:35.179Z,0
2018-10-18T03:35:40.633Z,0
2018-10-18T03:36:46.154Z,0
2018-10-18T03:37:51.621Z,0
2018-10-18T03:38:56.484Z,0
2018-10-18T03:40:01.620Z,0
2018-10-18T03:41:06.259Z,0
2018-10-18T03:42:11.345Z,0
2018-10-18T03:43:17.059Z,0
2018-10-18T03:44:22.219Z,0
2018-10-18T03:45:27.895Z,0
2018-10-18T03:46:33.354Z,0
2018-10-18T03:47:38.516Z,0
2018-10-18T03:48:44.378Z,0
2018-10-18T03:49:49.537Z,0
2018-10-18T03:50:54.778Z,0
2018-10-18T03:52:00.312Z,0
2018-10-18T03:53:05.509Z,0
2018-10-18T03:54:11.402Z,0
2018-10-18T03:55:16.909Z,0
2018-10-18T03:56:22.426Z,0
2018-10-18T03:57:27.988Z,0
2018-10-18T03:58:33.440Z,0
2018-10-18T03:59:38.858Z,0
2018-10-18T04:00:45.219Z,0
2018-10-18T04:01:50.409Z,0
2018-10-18T04:02:55.908Z,0
2018-10-18T04:04:01.387Z,0
2018-10-18T04:05:05.706Z,0
2018-10-18T04:06:10.753Z,0
2018-10-18T04:07:16.230Z,0
2018-10-18T04:08:21.713Z,0
2018-10-18T04:09:41.750Z,0
2018-10-18T04:10:46.943Z,0
2018-10-18T04:11:52.458Z,0
2018-10-18T04:12:58.599Z,0
2018-10-18T04:14:03.555Z,0
2018-10-18T04:15:09.028Z,0
2018-10-18T04:16:14.842Z,0
2018-10-18T04:17:20.061Z,0
2018-10-18T04:18:40.796Z,0
2018-10-18T04:19:46.264Z,0
2018-10-18T04:20:51.426Z,0
2018-10-18T04:21:56.921Z,0
2018-10-18T04:23:01.889Z,0
2018-10-18T04:24:07.136Z,0
2018-10-18T04:25:13.269Z,0
2018-10-18T04:26:18.466Z,0
2018-10-18T04:27:23.910Z,0
2018-10-18T04:28:44.372Z,0
2018-10-18T04:29:49.346Z,0
2018-10-18T04:30:54.749Z,0
2018-10-18T04:31:59.907Z,0
2018-10-18T04:33:04.905Z,0
2018-10-18T04:34:10.318Z,0
2018-10-18T04:35:15.870Z,0
2018-10-18T04:36:21.582Z,0
2018-10-18T04:37:27.403Z,0
2018-10-18T04:38:33.150Z,0
2018-10-18T04:39:38.447Z,0
2018-10-18T04:40:43.882Z,0
2018-10-18T04:41:49.137Z,0
2018-10-18T04:42:54.948Z,0
2018-10-18T04:44:00.108Z,0
2018-10-18T04:45:05.051Z,0
2018-10-18T04:46:10.744Z,0
2018-10-18T04:47:16.604Z,0
2018-10-18T04:48:22.315Z,0
2018-10-18T04:49:28.956Z,0
2018-10-18T04:50:33.606Z,0
2018-10-18T04:51:39.299Z,0
2018-10-18T04:52:44.175Z,0
2018-10-18T04:53:49.445Z,0
2018-10-18T04:54:54.994Z,0
2018-10-18T04:56:00.182Z,0
2018-10-18T04:57:05.368Z,0
2018-10-18T04:58:10.944Z,0
2018-10-18T04:59:16.108Z,0
2018-10-18T05:00:21.621Z,0
2018-10-18T05:01:27.994Z,0
2018-10-18T05:02:33.454Z,0
2018-10-18T05:03:39.000Z,0
2018-10-18T05:04:44.234Z,0
2018-10-18T05:05:49.140Z,0
2018-10-18T05:06:54.762Z,0
2018-10-18T05:08:00.398Z,0
2018-10-18T05:09:05.870Z,0
2018-10-18T05:10:11.634Z,0
2018-10-18T05:11:16.787Z,0
2018-10-18T05:12:22.744Z,0
2018-10-18T05:13:28.847Z,0
2018-10-18T05:14:34.008Z,0
2018-10-18T05:15:39.487Z,0
2018-10-18T05:16:45.018Z,0
2018-10-18T05:17:50.509Z,0
2018-10-18T05:18:55.705Z,0
2018-10-18T05:20:00.761Z,0
2018-10-18T05:21:05.640Z,0
2018-10-18T05:22:10.833Z,0
2018-10-18T05:23:15.910Z,0
2018-10-18T05:24:20.868Z,0
2018-10-18T05:25:26.220Z,0
2018-10-18T05:26:31.988Z,0
2018-10-18T05:27:37.856Z,0
2018-10-18T05:28:43.059Z,0
2018-10-18T05:29:47.639Z,0
2018-10-18T05:30:53.589Z,0
2018-10-18T05:31:59.178Z,0
2018-10-18T05:33:03.756Z,0
2018-10-18T05:34:09.043Z,0
2018-10-18T05:35:14.484Z,0
2018-10-18T05:36:19.682Z,0
2018-10-18T05:37:25.142Z,0
2018-10-18T05:38:30.638Z,0
2018-10-18T05:39:36.195Z,0
2018-10-18T05:40:41.409Z,0
2018-10-18T05:41:46.296Z,0
2018-10-18T05:42:51.517Z,0
2018-10-18T05:43:56.427Z,0
2018-10-18T05:45:01.601Z,0
2018-10-18T05:46:06.848Z,0
2018-10-18T05:47:12.530Z,0
2018-10-18T05:48:18.433Z,0
2018-10-18T05:49:24.119Z,0
2018-10-18T05:50:29.764Z,0
2018-10-18T05:51:35.660Z,0
2018-10-18T05:52:40.818Z,0
2018-10-18T05:53:47.217Z,0
2018-10-18T05:54:53.312Z,0
2018-10-18T05:55:58.783Z,0
2018-10-18T05:57:02.841Z,0
2018-10-18T05:58:08.354Z,0
2018-10-18T05:59:13.630Z,0
2018-10-18T06:00:18.961Z,0
2018-10-18T06:01:25.287Z,0
2018-10-18T06:02:30.245Z,0
2018-10-18T06:03:35.745Z,0
2018-10-18T06:04:40.941Z,0
2018-10-18T06:05:45.882Z,0
2018-10-18T06:06:51.293Z,0
2018-10-18T06:07:56.442Z,0
2018-10-18T06:09:01.804Z,0
2018-10-18T06:10:06.618Z,0
2018-10-18T06:11:12.178Z,0
2018-10-18T06:12:17.058Z,0
2018-10-18T06:13:22.775Z,0
2018-10-18T06:14:27.928Z,0
2018-10-18T06:15:33.762Z,0
2018-10-18T06:16:38.985Z,0
2018-10-18T06:17:43.888Z,0
2018-10-18T06:18:49.359Z,0
2018-10-18T06:19:53.818Z,0
2018-10-18T06:20:58.709Z,0
2018-10-18T06:22:03.701Z,0
2018-10-18T06:23:08.706Z,0
2018-10-18T06:24:14.301Z,0
2018-10-18T06:25:19.960Z,0
2018-10-18T06:26:25.203Z,0
2018-10-18T06:27:30.854Z,0
2018-10-18T06:28:36.011Z,0
2018-10-18T06:29:41.445Z,0
2018-10-18T06:30:46.854Z,0
2018-10-18T06:31:52.018Z,0
2018-10-18T06:32:56.971Z,0
2018-10-18T06:34:02.253Z,6
2018-10-18T06:35:07.767Z,6
2018-10-18T06:36:12.953Z,6
2018-10-18T06:37:18.719Z,6
2018-10-18T06:38:23.864Z,6
2018-10-18T06:39:29.320Z,6
2018-10-18T06:40:34.197Z,6
2018-10-18T06:41:39.420Z,6
2018-10-18T06:42:44.839Z,6
2018-10-18T06:43:50.278Z,6
2018-10-18T06:44:55.461Z,6
2018-10-18T06:46:01.145Z,6
2018-10-18T06:47:06.563Z,6
2018-10-18T06:48:12.786Z,6
2018-10-18T06:49:19.093Z,6
2018-10-18T06:50:25.002Z,6
2018-10-18T06:51:30.708Z,6
2018-10-18T06:52:36.201Z,24
2018-10-18T06:53:41.229Z,24
2018-10-18T06:54:46.951Z,24
2018-10-18T06:55:52.105Z,24
2018-10-18T06:56:57.031Z,24
2018-10-18T06:58:02.993Z,24
2018-10-18T06:59:08.172Z,24
2018-10-18T07:00:13.735Z,24
2018-10-18T07:01:19.579Z,24
2018-10-18T07:02:24.790Z,24
2018-10-18T07:03:30.685Z,24
2018-10-18T07:04:35.873Z,6
2018-10-18T07:05:41.315Z,338
2018-10-18T07:06:47.008Z,323
2018-10-18T07:07:52.577Z,323
2018-10-18T07:08:57.641Z,308
2018-10-18T07:10:03.142Z,323
2018-10-18T07:11:08.758Z,338
2018-10-18T07:12:14.582Z,323
2018-10-18T07:13:19.041Z,338
2018-10-18T07:14:24.031Z,323
2018-10-18T07:15:29.302Z,308
2018-10-18T07:16:34.178Z,308
2018-10-18T07:17:39.860Z,308
2018-10-18T07:18:45.840Z,323
2018-10-18T07:19:51.013Z,323
2018-10-18T07:20:56.370Z,338
2018-10-18T07:22:01.108Z,323
2018-10-18T07:23:06.075Z,323
2018-10-18T07:24:11.865Z,338
2018-10-18T07:25:18.163Z,323
2018-10-18T07:26:24.052Z,317
2018-10-18T07:27:29.154Z,338
2018-10-18T07:28:34.835Z,323
2018-10-18T07:29:40.272Z,338
2018-10-18T07:30:45.511Z,323
2018-10-18T07:31:51.021Z,323
2018-10-18T07:32:56.198Z,338
2018-10-18T07:34:01.809Z,323
2018-10-18T07:35:06.550Z,308
2018-10-18T07:36:12.151Z,338
2018-10-18T07:37:17.788Z,338
2018-10-18T07:38:22.887Z,323
2018-10-18T07:39:28.440Z,338
2018-10-18T07:40:33.619Z,323
2018-10-18T07:41:39.174Z,338
2018-10-18T07:42:44.894Z,323
2018-10-18T07:43:50.060Z,317
2018-10-18T07:44:54.978Z,323
2018-10-18T07:46:00.567Z,338
2018-10-18T07:47:05.269Z,338
2018-10-18T07:48:11.068Z,323
2018-10-18T07:49:17.164Z,323
2018-10-18T07:50:22.804Z,308
2018-10-18T07:51:28.044Z,308
2018-10-18T07:52:33.245Z,313
2018-10-18T07:53:38.193Z,313
2018-10-18T07:54:43.788Z,308
2018-10-18T07:55:48.735Z,308
2018-10-18T07:56:53.939Z,308
2018-10-18T07:57:59.092Z,308
2018-10-18T07:59:04.886Z,313
2018-10-18T08:00:11.027Z,308
2018-10-18T08:01:17.080Z,308
2018-10-18T08:02:22.106Z,308
2018-10-18T08:03:27.785Z,308
2018-10-18T08:04:32.459Z,292
2018-10-18T08:05:37.726Z,308
2018-10-18T08:06:43.140Z,292
2018-10-18T08:07:48.437Z,308
2018-10-18T08:08:53.899Z,323
2018-10-18T08:09:59.644Z,308
2018-10-18T08:11:05.423Z,308
2018-10-18T08:12:10.533Z,323
2018-10-18T08:13:16.121Z,323
2018-10-18T08:14:21.748Z,323
2018-10-18T08:15:26.824Z,323
2018-10-18T08:16:32.009Z,308
2018-10-18T08:17:37.548Z,323
2018-10-18T08:18:43.326Z,308
2018-10-18T08:19:48.405Z,323
2018-10-18T08:20:53.901Z,323
2018-10-18T08:21:59.424Z,323
2018-10-18T08:23:04.593Z,323
2018-10-18T08:24:09.797Z,323
2018-10-18T08:25:15.105Z,323
2018-10-18T08:26:20.206Z,323
2018-10-18T08:27:40.552Z,323
2018-10-18T08:28:46.079Z,308
2018-10-18T08:29:51.440Z,308
2018-10-18T08:30:55.762Z,323
2018-10-18T08:32:00.895Z,292
2018-10-18T08:33:06.157Z,308
2018-10-18T08:34:11.700Z,308
2018-10-18T08:35:17.146Z,308
2018-10-18T08:36:21.738Z,308
2018-10-18T08:37:27.802Z,308
2018-10-18T08:38:33.223Z,313
2018-10-18T08:39:38.732Z,308
2018-10-18T08:40:44.536Z,308
2018-10-18T08:41:49.682Z,308
2018-10-18T08:42:55.319Z,308
2018-10-18T08:44:00.705Z,308
2018-10-18T08:45:06.016Z,313
2018-10-18T08:46:11.754Z,313
2018-10-18T08:47:16.964Z,313
2018-10-18T08:48:22.127Z,292
2018-10-18T08:49:42.008Z,292
2018-10-18T08:50:46.699Z,323
2018-10-18T08:51:52.412Z,308
2018-10-18T08:52:58.012Z,323
2018-10-18T08:54:02.353Z,292
2018-10-18T08:55:07.933Z,292
2018-10-18T08:56:13.422Z,292
2018-10-18T08:57:19.009Z,308
2018-10-18T08:58:24.816Z,313
2018-10-18T08:59:29.390Z,308
2018-10-18T09:00:35.312Z,292
2018-10-18T09:01:40.930Z,292
2018-10-18T09:02:45.802Z,323
2018-10-18T09:03:51.313Z,308
2018-10-18T09:04:55.898Z,308
2018-10-18T09:06:00.957Z,323
2018-10-18T09:07:06.549Z,308
2018-10-18T09:08:12.167Z,308
2018-10-18T09:09:18.186Z,292
2018-10-18T09:10:23.763Z,308
2018-10-18T09:11:28.399Z,308
2018-10-18T09:12:33.735Z,323
2018-10-18T09:13:38.921Z,323
2018-10-18T09:14:44.381Z,308
2018-10-18T09:15:49.926Z,323
2018-10-18T09:16:55.486Z,323
2018-10-18T09:18:01.195Z,323
2018-10-18T09:19:06.769Z,323
2018-10-18T09:20:13.024Z,338
2018-10-18T09:21:18.501Z,338
2018-10-18T09:22:24.238Z,323
2018-10-18T09:23:29.110Z,323
2018-10-18T09:24:34.022Z,333
2018-10-18T09:25:39.511Z,317
2018-10-18T09:26:44.104Z,333
2018-10-18T09:27:49.770Z,323
2018-10-18T09:28:55.281Z,323
2018-10-18T09:30:00.451Z,338
2018-10-18T09:31:06.320Z,338
2018-10-18T09:32:11.822Z,338
2018-10-18T09:33:17.299Z,338
2018-10-18T09:34:23.142Z,323
2018-10-18T09:35:28.016Z,338
2018-10-18T09:36:33.450Z,323
2018-10-18T09:37:38.652Z,333
2018-10-18T09:38:43.839Z,317
2018-10-18T09:39:49.733Z,333
2018-10-18T09:40:54.890Z,348
2018-10-18T09:42:00.334Z,333
2018-10-18T09:43:06.027Z,363
2018-10-18T09:44:11.424Z,342
2018-10-18T09:45:17.079Z,342
2018-10-18T09:46:22.914Z,348
2018-10-18T09:47:28.065Z,342
2018-10-18T09:48:32.972Z,358
2018-10-18T09:49:38.431Z,342
2018-10-18T09:50:43.607Z,342
2018-10-18T09:51:49.509Z,342
2018-10-18T09:52:54.969Z,358
2018-10-18T09:54:00.682Z,348
2018-10-18T09:55:05.444Z,342
2018-10-18T09:56:11.539Z,342
2018-10-18T09:57:16.814Z,348
2018-10-18T09:58:22.862Z,348
2018-10-18T09:59:27.177Z,348
2018-10-18T10:00:32.423Z,342
2018-10-18T10:01:37.940Z,342
2018-10-18T10:02:42.630Z,342
2018-10-18T10:03:48.668Z,342
2018-10-18T10:04:54.297Z,342
2018-10-18T10:05:59.486Z,358
2018-10-18T10:07:05.826Z,358
2018-10-18T10:08:11.578Z,358
2018-10-18T10:09:16.825Z,342
2018-10-18T10:10:22.242Z,358
2018-10-18T10:11:27.156Z,342
2018-10-18T10:12:32.402Z,358
2018-10-18T10:13:37.701Z,358
2018-10-18T10:14:43.246Z,358
2018-10-18T10:15:49.137Z,342
2018-10-18T10:16:54.347Z,358
2018-10-18T10:17:59.255Z,363
2018-10-18T10:19:05.284Z,363
2018-10-18T10:20:10.556Z,363
2018-10-18T10:21:16.013Z,348
2018-10-18T10:22:21.720Z,363
2018-10-18T10:23:26.638Z,348
2018-10-18T10:24:32.329Z,348
2018-10-18T10:25:38.025Z,348
2018-10-18T10:26:42.674Z,342
2018-10-18T10:27:48.099Z,342
2018-10-18T10:28:53.739Z,358
2018-10-18T10:29:59.165Z,342
2018-10-18T10:31:04.724Z,55
2018-10-18T10:32:09.701Z,55
2018-10-18T10:33:14.701Z,55
2018-10-18T10:34:19.900Z,55
2018-10-18T10:35:25.824Z,55
2018-10-18T10:36:31.575Z,37
2018-10-18T10:37:36.640Z,64
2018-10-18T10:38:42.145Z,37
2018-10-18T10:39:48.120Z,55
2018-10-18T10:40:52.713Z,72
2018-10-18T10:41:58.271Z,72
2018-10-18T10:43:03.498Z,62
2018-10-18T10:44:09.242Z,79
2018-10-18T10:45:15.848Z,79
2018-10-18T10:46:22.337Z,72
2018-10-18T10:47:27.800Z,79
2018-10-18T10:48:33.684Z,79
2018-10-18T10:49:39.145Z,79
2018-10-18T10:50:44.011Z,95
2018-10-18T10:51:49.730Z,95
2018-10-18T10:52:55.003Z,79
2018-10-18T10:54:00.247Z,95
2018-10-18T10:55:04.639Z,95
2018-10-18T10:56:10.423Z,79
2018-10-18T10:57:15.540Z,79
2018-10-18T10:58:21.702Z,72
2018-10-18T10:59:26.589Z,72
2018-10-18T11:00:31.956Z,88
2018-10-18T11:01:37.548Z,86
2018-10-18T11:02:42.992Z,62
2018-10-18T11:03:48.828Z,79
2018-10-18T11:04:54.030Z,62
2018-10-18T11:05:58.948Z,79
2018-10-18T11:07:04.765Z,62
2018-10-18T11:08:09.951Z,79
2018-10-18T11:09:16.094Z,62
2018-10-18T11:10:22.173Z,72
2018-10-18T11:11:27.585Z,37
2018-10-18T11:12:33.212Z,37
2018-10-18T11:13:38.379Z,37
2018-10-18T11:14:44.004Z,37
2018-10-18T11:15:49.859Z,37
2018-10-18T11:16:55.405Z,37
2018-10-18T11:18:01.298Z,37
2018-10-18T11:19:07.378Z,64
2018-10-18T11:20:13.396Z,64
2018-10-18T11:21:19.396Z,64
2018-10-18T11:22:25.355Z,64
2018-10-18T11:23:30.245Z,64
2018-10-18T11:24:35.647Z,64
2018-10-18T11:25:41.382Z,64
2018-10-18T11:26:46.817Z,64
2018-10-18T11:27:52.551Z,64
2018-10-18T11:28:57.545Z,55
2018-10-18T11:30:03.045Z,72
2018-10-18T11:31:08.423Z,88
2018-10-18T11:32:14.284Z,86
2018-10-18T11:33:19.668Z,103
2018-10-18T11:34:25.018Z,79
2018-10-18T11:35:30.123Z,62
2018-10-18T11:36:35.096Z,62
2018-10-18T11:37:40.540Z,62
2018-10-18T11:38:45.413Z,95
2018-10-18T11:39:50.977Z,62
2018-10-18T11:40:56.421Z,72
2018-10-18T11:42:01.466Z,55
2018-10-18T11:43:07.420Z,55
2018-10-18T11:44:12.895Z,55
2018-10-18T11:45:18.812Z,37
2018-10-18T11:46:24.572Z,37
2018-10-18T11:47:29.843Z,48
2018-10-18T11:48:34.961Z,48
2018-10-18T11:49:40.484Z,48
2018-10-18T11:50:45.705Z,31
2018-10-18T11:51:51.531Z,31
2018-10-18T11:52:56.633Z,31
2018-10-18T11:54:01.773Z,31
2018-10-18T11:55:07.349Z,31
2018-10-18T11:56:12.977Z,31
2018-10-18T11:57:19.080Z,31
2018-10-18T11:58:24.473Z,31
2018-10-18T11:59:29.856Z,31
2018-10-18T12:00:35.429Z,31
2018-10-18T12:01:40.879Z,31
2018-10-18T12:02:46.914Z,31
2018-10-18T12:03:52.884Z,31
2018-10-18T12:04:58.213Z,48
2018-10-18T12:06:03.267Z,48
2018-10-18T12:07:08.750Z,48
2018-10-18T12:08:14.888Z,48
2018-10-18T12:09:20.317Z,48
2018-10-18T12:10:25.538Z,48
2018-10-18T12:11:30.832Z,48
2018-10-18T12:12:36.525Z,48
2018-10-18T12:13:42.030Z,48
2018-10-18T12:14:47.177Z,48
2018-10-18T12:15:52.317Z,48
2018-10-18T12:16:57.579Z,48
2018-10-18T12:18:03.497Z,31
2018-10-18T12:19:09.712Z,31
2018-10-18T12:20:16.031Z,31
2018-10-18T12:21:21.742Z,31
2018-10-18T12:22:27.360Z,31
2018-10-18T12:23:32.850Z,31
2018-10-18T12:24:38.278Z,31
2018-10-18T12:25:43.830Z,31
2018-10-18T12:26:49.361Z,31
2018-10-18T12:27:54.650Z,31
2018-10-18T12:28:59.694Z,31
2018-10-18T12:30:05.317Z,31
2018-10-18T12:31:10.098Z,31
2018-10-18T12:32:14.867Z,31
2018-10-18T12:33:20.605Z,48
2018-10-18T12:34:25.989Z,48
2018-10-18T12:35:30.577Z,48
2018-10-18T12:36:36.018Z,48
2018-10-18T12:37:41.457Z,48
2018-10-18T12:38:46.928Z,48
2018-10-18T12:39:52.058Z,64
2018-10-18T12:40:57.689Z,64
2018-10-18T12:42:03.636Z,79
2018-10-18T12:43:09.142Z,79
2018-10-18T12:44:14.638Z,72
2018-10-18T12:45:20.415Z,48
2018-10-18T12:46:25.739Z,48
2018-10-18T12:47:30.911Z,48
2018-10-18T12:48:37.166Z,48
2018-10-18T12:49:42.787Z,48
2018-10-18T12:50:47.959Z,48
2018-10-18T12:51:53.680Z,48
2018-10-18T12:52:58.585Z,48
2018-10-18T12:54:04.446Z,48
2018-10-18T12:55:10.057Z,48
2018-10-18T12:56:15.817Z,48
2018-10-18T12:57:21.447Z,48
2018-10-18T12:58:27.057Z,64
2018-10-18T12:59:32.490Z,64
2018-10-18T13:00:37.625Z,64
2018-10-18T13:01:43.192Z,64
2018-10-18T13:02:48.387Z,64
2018-10-18T13:03:54.260Z,64
2018-10-18T13:04:59.425Z,64
2018-10-18T13:06:04.321Z,37
2018-10-18T13:07:10.029Z,62
2018-10-18T13:08:16.152Z,55
2018-10-18T13:09:21.723Z,68
2018-10-18T13:10:41.866Z,72
2018-10-18T13:11:47.055Z,55
2018-10-18T13:12:52.468Z,37
2018-10-18T13:13:57.473Z,64
2018-10-18T13:15:03.133Z,48
2018-10-18T13:16:08.291Z,37
2018-10-18T13:17:13.451Z,62
2018-10-18T13:18:18.906Z,62
2018-10-18T13:19:24.356Z,62
2018-10-18T13:20:29.408Z,48
2018-10-18T13:21:34.878Z,48
2018-10-18T13:22:39.513Z,31
2018-10-18T13:23:44.947Z,31
2018-10-18T13:24:50.084Z,31
2018-10-18T13:25:55.710Z,48
2018-10-18T13:27:00.936Z,48
2018-10-18T13:28:06.141Z,48
2018-10-18T13:29:11.573Z,48
2018-10-18T13:30:17.477Z,48
2018-10-18T13:31:23.554Z,48
2018-10-18T13:32:28.721Z,48
2018-10-18T13:33:34.402Z,48
2018-10-18T13:34:39.672Z,48
2018-10-18T13:35:45.125Z,48
2018-10-18T13:36:50.736Z,48
2018-10-18T13:37:55.706Z,48
2018-10-18T13:39:01.043Z,48
2018-10-18T13:40:06.983Z,48
2018-10-18T13:41:12.419Z,48
2018-10-18T13:42:17.992Z,64
2018-10-18T13:43:23.605Z,48
2018-10-18T13:44:28.867Z,48
2018-10-18T13:45:34.569Z,48
2018-10-18T13:46:40.275Z,48
2018-10-18T13:47:45.778Z,48
2018-10-18T13:48:51.417Z,64
2018-10-18T13:49:56.658Z,37
2018-10-18T13:51:02.004Z,62
2018-10-18T13:52:07.304Z,62
2018-10-18T13:53:12.771Z,79
2018-10-18T13:54:18.487Z,62
2018-10-18T13:55:24.304Z,44
2018-10-18T13:56:29.858Z,64
2018-10-18T13:57:35.558Z,55
2018-10-18T13:58:41.346Z,48
2018-10-18T13:59:46.373Z,31
2018-10-18T14:00:52.805Z,31
2018-10-18T14:01:58.133Z,13
2018-10-18T14:03:03.481Z,40
2018-10-18T14:04:08.606Z,40
2018-10-18T14:05:14.137Z,40
2018-10-18T14:06:19.741Z,40
2018-10-18T14:07:25.187Z,40
2018-10-18T14:08:30.588Z,40
2018-10-18T14:09:36.016Z,24
2018-10-18T14:10:40.879Z,24
2018-10-18T14:11:46.068Z,24
2018-10-18T14:12:51.316Z,24
2018-10-18T14:13:56.457Z,24
2018-10-18T14:15:01.872Z,24
2018-10-18T14:16:07.013Z,24
2018-10-18T14:17:12.700Z,24
2018-10-18T14:18:19.042Z,40
2018-10-18T14:19:24.251Z,40
2018-10-18T14:20:28.853Z,40
2018-10-18T14:21:34.244Z,40
2018-10-18T14:22:39.754Z,40
2018-10-18T14:23:45.189Z,40
2018-10-18T14:24:50.941Z,40
2018-10-18T14:25:55.334Z,40
2018-10-18T14:27:00.501Z,40
2018-10-18T14:28:06.014Z,40
2018-10-18T14:29:11.179Z,40
2018-10-18T14:30:16.429Z,40
2018-10-18T14:31:22.741Z,40
2018-10-18T14:32:28.188Z,40
2018-10-18T14:33:33.942Z,40
2018-10-18T14:34:39.094Z,40
2018-10-18T14:35:44.545Z,40
2018-10-18T14:36:49.797Z,24
2018-10-18T14:37:55.080Z,24
2018-10-18T14:39:00.572Z,24
2018-10-18T14:40:05.632Z,24
2018-10-18T14:41:11.106Z,24
2018-10-18T14:42:16.278Z,24
2018-10-18T14:43:21.585Z,24
2018-10-18T14:44:27.427Z,24
2018-10-18T14:45:33.615Z,24
2018-10-18T14:46:38.499Z,24
2018-10-18T14:47:44.037Z,24
2018-10-18T14:48:49.067Z,24
2018-10-18T14:49:53.702Z,24
2018-10-18T14:50:58.892Z,24
2018-10-18T14:52:04.072Z,24
2018-10-18T14:53:10.299Z,24
2018-10-18T14:54:15.780Z,24
2018-10-18T14:55:21.629Z,24
2018-10-18T14:56:26.567Z,24
2018-10-18T14:57:32.325Z,24
2018-10-18T14:58:37.475Z,24
2018-10-18T14:59:42.915Z,24
2018-10-18T15:00:48.344Z,6
2018-10-18T15:01:52.988Z,6
2018-10-18T15:02:58.197Z,6
2018-10-18T15:04:03.604Z,6
2018-10-18T15:05:08.876Z,6
2018-10-18T15:06:14.999Z,6
2018-10-18T15:07:19.599Z,6
2018-10-18T15:08:24.806Z,6
2018-10-18T15:09:30.177Z,6
2018-10-18T15:10:35.213Z,6
2018-10-18T15:11:40.193Z,6
2018-10-18T15:12:46.113Z,6
2018-10-18T15:13:51.312Z,6
2018-10-18T15:14:56.831Z,6
2018-10-18T15:16:02.713Z,0
2018-10-18T15:17:07.161Z,0
2018-10-18T15:18:12.564Z,0
2018-10-18T15:19:17.737Z,0
2018-10-18T15:20:22.918Z,0
2018-10-18T15:21:29.085Z,0
2018-10-18T15:22:34.345Z,0
2018-10-18T15:23:39.858Z,0
2018-10-18T15:24:45.699Z,0
2018-10-18T15:25:52.534Z,0
2018-10-18T15:26:58.858Z,0
2018-10-18T15:28:04.897Z,0
2018-10-18T15:29:10.274Z,0
2018-10-18T15:30:15.782Z,0
2018-10-18T15:31:21.049Z,0
2018-10-18T15:32:26.590Z,0
2018-10-18T15:33:32.583Z,0
2018-10-18T15:34:37.458Z,0
2018-10-18T15:35:42.623Z,0
2018-10-18T15:36:47.953Z,0
2018-10-18T15:37:53.830Z,0
2018-10-18T15:38:59.557Z,0
2018-10-18T15:40:06.093Z,0
2018-10-18T15:41:11.602Z,0
2018-10-18T15:42:16.724Z,0
2018-10-18T15:43:22.575Z,0